Elfrida, AZ

5:41 PM MST on February 12, 2016 (GMT -0700)
1 Mile East of Elfrida | | Change Station
CLOSE
Current Station
Personal Weather Station
Location: Elfrida, AZ
Elevation: 4144 ft
Nearby Weather Stations

Elev 4144 ft 31.68 °N, 109.67 °W | Updated 16 seconds ago

Clear
Clear
73.6 °F
Feels Like 75 °F
N
1.1
Wind Variable Wind from SSW
Gusts 2.5 mph

Today
High -- | Low -- °F
--% Chance of Precip.
Yesterday
High -- | Low -- °F
Precip. -- in
Pressure 30.07 in
Visibility 10.0 miles
Clouds Clear
Heat Index 75 °F
Dew Point 28 °F
Humidity 18%
Rainfall 0.00 in
Snow Depth Not available.
7:03 AM 6:02 PM
Waxing Crescent, 25% visible
METAR KDUG 122356Z AUTO 17003KT 10SM CLR 25/M17 A3018 RMK AO2 SLP181 T02501167 10261 20194 55006
Pressure 30.07 in
Visibility 10.0 miles
Clouds Clear
Heat Index 75 °F
Dew Point 28 °F
Humidity 18%
Rainfall 0.00 in
Snow Depth Not available.
7:03 AM 6:02 PM
Waxing Crescent, 25% visible
METAR KDUG 122356Z AUTO 17003KT 10SM CLR 25/M17 A3018 RMK AO2 SLP181 T02501167 10261 20194 55006

10-Day Weather Forecast

Almanac

Astronomy

Feb. 12, 2016 Rise Set
Actual Time
Civil Twilight
Nautical Twilight
Astronomical Twilight
Moon
Length of Visible Light
Length of Day
Tomorrow will be .
, % of the Moon is Illuminated

Today's Extremes

State Highs State Lows

Community

WunderPhotos

Upload Photos

1,892,444 photos uploaded!

WunderBlog® & News

Nearby

Air Quality

  Air Quality AQ Index Pollutant
Not available.

Snow Depth

Station Depth Elevation

Earthquake Activity

City Distance Mag. Time & Date
Minimum magnitude displayed is 2.5.

Coastal Water Temperatures

Place Temperature

Stations

Nearby Weather Stations

Station Location Temp. Windchill Dew Point Humidity Wind Precip. Elev Updated Type
                   

Watches & Warnings

There are currently no watches in effect.